createdAt,value
2022-12-23T11:28:19.600Z,98673.06
2022-12-23T11:31:11.932Z,98671.47
2022-12-23T11:33:41.300Z,98655.00
2022-12-23T11:36:13.843Z,98664.72
2022-12-23T11:39:01.891Z,98655.66
2022-12-23T11:41:34.084Z,98671.00
2022-12-23T11:44:06.188Z,98665.09
2022-12-23T11:46:34.624Z,98669.41
2022-12-23T11:49:22.973Z,98660.94
2022-12-23T11:52:13.860Z,98649.66
2022-12-23T11:54:40.586Z,98656.31
2022-12-23T11:57:15.403Z,98647.91
2022-12-23T11:59:50.111Z,98645.94
2022-12-23T12:02:30.481Z,98645.38
2022-12-23T12:05:18.516Z,98649.44
2022-12-23T12:07:45.441Z,98656.06
2022-12-23T12:10:32.375Z,98661.75
2022-12-23T12:13:06.772Z,98649.09
2022-12-23T12:15:42.845Z,98650.63
2022-12-23T12:18:12.368Z,98640.75
2022-12-23T12:20:45.817Z,98636.44
2022-12-23T12:23:29.034Z,98640.06
2022-12-23T12:26:00.328Z,98641.22
2022-12-23T12:28:45.764Z,98650.63
2022-12-23T12:31:23.490Z,98647.25
2022-12-23T12:36:53.385Z,98664.94
2022-12-23T12:39:25.228Z,98660.38
2022-12-23T12:42:05.352Z,98651.91
2022-12-23T12:44:51.219Z,98643.88
2022-12-23T12:47:53.287Z,98652.97
2022-12-23T12:50:27.975Z,98659.78
2022-12-23T12:52:56.998Z,98679.09
2022-12-23T12:55:26.899Z,98659.56
2022-12-23T12:57:55.129Z,98671.66
2022-12-23T13:00:24.069Z,98671.88
2022-12-23T13:02:52.253Z,98667.59
2022-12-23T13:05:45.952Z,98674.88
2022-12-23T13:08:15.087Z,98673.69
2022-12-23T13:10:56.920Z,98686.00
2022-12-23T13:13:36.012Z,98679.25
2022-12-23T13:16:23.595Z,98675.19
2022-12-23T13:19:27.628Z,98686.09
2022-12-23T13:22:01.131Z,98675.44
2022-12-23T13:24:45.860Z,98676.28
2022-12-23T13:27:30.222Z,98686.28
2022-12-23T13:30:06.000Z,98690.34
2022-12-23T13:33:01.900Z,98690.22
2022-12-23T13:35:37.223Z,98695.22
2022-12-23T13:38:25.663Z,98688.59
2022-12-23T13:40:59.089Z,98695.78
2022-12-23T13:43:33.868Z,98685.31
2022-12-23T13:46:01.768Z,98691.38
2022-12-23T13:48:52.539Z,98691.38
2022-12-23T13:51:47.635Z,98701.50
2022-12-23T13:54:17.514Z,98695.78
2022-12-23T13:57:08.070Z,98688.25
2022-12-23T13:59:43.323Z,98692.53
2022-12-23T14:02:36.130Z,98691.38
2022-12-23T14:05:16.405Z,98695.88
2022-12-23T14:07:44.387Z,98690.03
2022-12-23T14:10:13.081Z,98694.72
2022-12-23T14:12:40.647Z,98693.03
2022-12-23T14:15:31.702Z,98681.59
2022-12-23T14:18:20.815Z,98688.53
2022-12-23T14:21:18.354Z,98682.00
2022-12-23T14:24:03.983Z,98679.84
2022-12-23T14:26:42.668Z,98695.34
2022-12-23T14:29:43.624Z,98683.84
2022-12-23T14:32:31.184Z,98680.75
2022-12-23T14:35:17.464Z,98667.84
2022-12-23T14:38:05.441Z,98674.06
2022-12-23T14:40:39.330Z,98682.28
2022-12-23T14:43:27.698Z,98684.84
2022-12-23T14:45:59.702Z,98685.31
2022-12-23T14:48:59.497Z,98678.59
2022-12-23T14:51:39.209Z,98678.66
2022-12-23T14:54:08.656Z,98678.44
2022-12-23T14:56:42.018Z,98686.63
2022-12-23T14:59:23.704Z,98679.53
2022-12-23T15:01:59.229Z,98679.31
2022-12-23T15:04:46.264Z,98677.25
2022-12-23T15:07:26.379Z,98685.81
2022-12-23T15:10:00.785Z,98674.22
2022-12-23T15:12:35.484Z,98685.41
2022-12-23T15:15:06.467Z,98680.94
2022-12-23T15:17:37.008Z,98684.63
2022-12-23T15:20:20.016Z,98677.44
2022-12-23T15:22:47.539Z,98678.09
2022-12-23T15:25:33.505Z,98680.41
2022-12-23T15:28:02.606Z,98681.41
2022-12-23T15:30:34.468Z,98691.47
2022-12-23T15:33:28.263Z,98685.09
2022-12-23T15:35:55.499Z,98685.75
2022-12-23T15:38:25.855Z,98681.72
2022-12-23T15:41:04.596Z,98680.31
2022-12-23T15:43:31.295Z,98677.50
2022-12-23T15:46:30.604Z,98684.22
2022-12-23T15:48:58.111Z,98690.78
2022-12-23T15:51:58.215Z,98684.28
2022-12-23T15:54:24.752Z,98682.81
2022-12-23T15:56:53.396Z,98682.63
2022-12-23T15:59:36.618Z,98680.16
2022-12-23T16:02:49.690Z,98688.34
2022-12-23T16:05:02.976Z,98677.75
2022-12-23T16:07:42.086Z,98681.66
2022-12-23T16:10:16.556Z,98683.13
2022-12-23T16:12:43.754Z,98680.25
2022-12-23T16:15:39.721Z,98677.78
2022-12-23T16:18:25.869Z,98670.47
2022-12-23T16:20:57.905Z,98664.75
2022-12-23T16:23:29.572Z,98673.38
2022-12-23T16:25:58.922Z,98661.47
2022-12-23T16:28:35.698Z,98662.75
2022-12-23T16:31:06.205Z,98666.41
2022-12-23T16:33:39.794Z,98659.84
2022-12-23T16:36:25.029Z,98669.25
2022-12-23T16:39:15.125Z,98661.66
2022-12-23T16:41:41.833Z,98659.22
2022-12-23T16:44:09.497Z,98660.63
2022-12-23T16:46:45.163Z,98651.47
2022-12-23T16:49:17.526Z,98651.22
2022-12-23T16:51:44.890Z,98654.69
2022-12-23T16:54:16.618Z,98656.34
2022-12-23T16:56:44.309Z,98652.66
2022-12-23T16:59:10.903Z,98655.50
2022-12-23T17:01:39.963Z,98658.16
2022-12-23T17:04:07.275Z,98664.88
2022-12-23T17:06:35.776Z,98666.72
2022-12-23T17:09:03.558Z,98674.13
2022-12-23T17:11:40.565Z,98680.84
2022-12-23T17:14:15.274Z,98679.00
2022-12-23T17:16:42.581Z,98672.47
2022-12-23T17:19:09.344Z,98685.38
2022-12-23T17:21:39.620Z,98670.47
2022-12-23T17:24:17.448Z,98674.78
2022-12-23T17:26:44.113Z,98676.63
2022-12-23T17:29:12.147Z,98688.31
2022-12-23T17:31:40.758Z,98682.41
2022-12-23T17:34:11.764Z,98690.81
2022-12-23T17:36:41.034Z,98691.81
2022-12-23T17:39:11.168Z,98681.38
2022-12-23T17:41:39.359Z,98687.25
2022-12-23T17:44:06.960Z,98678.25
2022-12-23T17:46:34.007Z,98680.91
2022-12-23T17:49:00.776Z,98673.72
2022-12-23T17:51:27.542Z,98661.47
2022-12-23T17:53:58.063Z,98659.97
2022-12-23T17:56:27.956Z,98651.97
2022-12-23T17:58:54.877Z,98653.38
2022-12-23T18:01:28.247Z,98646.44
2022-12-23T18:03:55.897Z,98633.97
2022-12-23T18:06:23.760Z,98645.59
2022-12-23T18:08:50.554Z,98644.59
2022-12-23T18:11:21.806Z,98635.38
2022-12-23T18:13:50.738Z,98639.88
2022-12-23T18:16:17.472Z,98643.19
2022-12-23T18:18:46.959Z,98650.56
2022-12-23T18:21:24.133Z,98640.53
2022-12-23T18:23:52.315Z,98633.84
2022-12-23T18:26:18.916Z,98632.69
2022-12-23T18:28:45.577Z,98638.19
2022-12-23T18:31:16.635Z,98643.09
2022-12-23T18:33:43.451Z,98648.44
2022-12-23T18:36:21.113Z,98627.56
2022-12-23T18:38:47.929Z,98653.97
2022-12-23T18:41:14.817Z,98652.13
2022-12-23T18:43:41.723Z,98641.88
2022-12-23T18:46:08.411Z,98646.16
2022-12-23T18:48:35.140Z,98646.81
2022-12-23T18:51:01.791Z,98647.06
2022-12-23T18:53:28.897Z,98643.22
2022-12-23T18:55:55.639Z,98655.88
2022-12-23T18:58:23.075Z,98650.56
2022-12-23T19:00:51.186Z,98640.56
2022-12-23T19:03:26.490Z,98632.97
2022-12-23T19:05:54.314Z,98641.56
2022-12-23T19:08:26.352Z,98635.59
2022-12-23T19:10:54.733Z,98638.47
2022-12-23T19:13:21.443Z,98644.22
2022-12-23T19:15:48.159Z,98635.19
2022-12-23T19:18:17.394Z,98637.44
2022-12-23T19:20:45.472Z,98644.59
2022-12-23T19:23:12.507Z,98649.06
2022-12-23T19:25:49.265Z,98654.16
2022-12-23T19:28:23.730Z,98652.50
2022-12-23T19:30:50.581Z,98649.28
2022-12-23T19:33:17.303Z,98652.34
2022-12-23T19:35:44.506Z,98655.81
2022-12-23T19:38:12.347Z,98652.13
2022-12-23T19:40:39.341Z,98644.16
2022-12-23T19:43:05.982Z,98637.94
2022-12-23T19:45:32.726Z,98629.38
2022-12-23T19:47:59.371Z,98634.06
2022-12-23T19:50:27.213Z,98623.88
2022-12-23T19:52:54.806Z,98613.03
2022-12-23T19:55:21.511Z,98603.31
2022-12-23T19:57:48.171Z,98592.19
2022-12-23T20:00:16.030Z,98591.00
2022-12-23T20:02:43.550Z,98585.78
2022-12-23T20:05:10.352Z,98577.59
2022-12-23T20:07:37.472Z,98585.56
2022-12-23T20:10:05.407Z,98588.41
2022-12-23T20:12:32.116Z,98579.59
2022-12-23T20:14:59.267Z,98583.25
2022-12-23T20:17:27.040Z,98590.19
2022-12-23T20:19:53.724Z,98574.16
2022-12-23T20:22:20.354Z,98561.47
2022-12-23T20:24:47.042Z,98576.31
2022-12-23T20:27:15.906Z,98592.50
2022-12-23T20:29:42.887Z,98588.91
2022-12-23T20:32:09.509Z,98582.31
2022-12-23T20:34:39.465Z,98573.81
2022-12-23T20:37:06.894Z,98564.44
2022-12-23T20:39:33.556Z,98572.56
2022-12-23T20:42:00.249Z,98576.03
2022-12-23T20:44:36.182Z,98567.91
2022-12-23T20:47:05.572Z,98567.31
2022-12-23T20:49:32.471Z,98556.00
2022-12-23T20:51:59.253Z,98566.31
2022-12-23T20:54:32.274Z,98565.59
2022-12-23T20:57:00.437Z,98571.78
2022-12-23T20:59:27.038Z,98563.59
2022-12-23T21:01:53.810Z,98561.75
2022-12-23T21:04:21.068Z,98547.88
2022-12-23T21:06:47.855Z,98551.44
2022-12-23T21:09:15.721Z,98569.91
2022-12-23T21:11:44.228Z,98560.88
2022-12-23T21:14:11.671Z,98544.78
2022-12-23T21:16:38.692Z,98536.56
2022-12-23T21:19:07.642Z,98534.88
2022-12-23T21:21:34.715Z,98527.50
2022-12-23T21:24:04.552Z,98528.56
2022-12-23T21:26:33.015Z,98523.03
2022-12-23T21:29:00.834Z,98525.09
2022-12-23T21:31:28.872Z,98516.69
2022-12-23T21:33:56.001Z,98530.25
2022-12-23T21:36:25.067Z,98521.09
2022-12-23T21:38:52.348Z,98504.06
2022-12-23T21:41:25.439Z,98526.31
2022-12-23T21:43:52.179Z,98514.63
2022-12-23T21:46:21.018Z,98487.34
2022-12-23T21:48:48.802Z,98488.97
2022-12-23T21:51:30.351Z,98482.94
2022-12-23T21:54:01.727Z,98506.25
2022-12-23T21:56:30.596Z,98517.94
2022-12-23T21:58:59.034Z,98505.59
2022-12-23T22:01:26.050Z,98501.91
2022-12-23T22:03:53.365Z,98508.63
2022-12-23T22:06:23.937Z,98490.00
2022-12-23T22:08:54.058Z,98497.84
2022-12-23T22:11:23.520Z,98508.44
2022-12-23T22:13:50.447Z,98504.91
2022-12-23T22:16:22.678Z,98496.91
2022-12-23T22:18:50.800Z,98497.94
2022-12-23T22:21:20.268Z,98494.00
2022-12-23T22:23:50.932Z,98501.63
2022-12-23T22:26:25.489Z,98511.41
2022-12-23T22:29:01.957Z,98502.81
2022-12-23T22:31:40.989Z,98492.63
2022-12-23T22:34:15.067Z,98514.72
2022-12-23T22:36:46.277Z,98509.94
2022-12-23T22:39:24.785Z,98523.03
2022-12-23T22:41:52.732Z,98508.34
2022-12-23T22:44:23.575Z,98500.13
2022-12-23T22:46:51.396Z,98485.03
2022-12-23T22:49:19.350Z,98484.00
2022-12-23T22:51:50.066Z,98483.03
2022-12-23T22:54:19.973Z,98493.91
2022-12-23T22:56:48.734Z,98477.44
2022-12-23T22:59:24.211Z,98483.56
2022-12-23T23:02:00.806Z,98481.47
2022-12-23T23:04:30.226Z,98479.59
2022-12-23T23:06:57.827Z,98489.00
2022-12-23T23:09:26.454Z,98480.66
2022-12-23T23:11:57.032Z,98469.16
2022-12-23T23:14:26.498Z,98498.78
2022-12-23T23:16:55.416Z,98467.06
2022-12-23T23:19:25.198Z,98466.41
2022-12-23T23:21:55.874Z,98455.56
2022-12-23T23:24:26.407Z,98459.88
2022-12-23T23:26:57.792Z,98471.22
2022-12-23T23:29:24.498Z,98483.31
2022-12-23T23:31:51.218Z,98483.88
2022-12-23T23:34:17.931Z,98472.56
2022-12-23T23:36:44.808Z,98504.75
2022-12-23T23:39:12.533Z,98512.22
2022-12-23T23:41:42.338Z,98497.34
2022-12-23T23:44:09.341Z,98523.38
2022-12-23T23:46:37.418Z,98533.41
2022-12-23T23:49:07.561Z,98536.34
2022-12-23T23:51:34.345Z,98523.38
2022-12-23T23:54:03.284Z,98529.28
2022-12-23T23:56:37.595Z,98522.13
2022-12-23T23:59:06.767Z,98518.41
